createdAt,value
2023-01-13T00:00:23.375Z,5.47
2023-01-13T00:02:50.023Z,7.53
2023-01-13T00:05:16.690Z,5.28
2023-01-13T00:07:43.340Z,4.32
2023-01-13T00:10:11.135Z,4.85
2023-01-13T00:12:41.750Z,6.07
2023-01-13T00:15:09.534Z,6.05
2023-01-13T00:17:36.452Z,5.72
2023-01-13T00:20:03.426Z,4.28
2023-01-13T00:22:33.365Z,5.85
2023-01-13T00:24:59.929Z,7.30
2023-01-13T00:27:26.517Z,5.05
2023-01-13T00:29:53.287Z,5.28
2023-01-13T00:32:19.873Z,5.18
2023-01-13T00:34:46.489Z,4.90
2023-01-13T00:37:13.189Z,6.60
2023-01-13T00:39:39.771Z,6.40
2023-01-13T00:42:07.660Z,6.55
2023-01-13T00:44:34.360Z,4.63
2023-01-13T00:47:01.051Z,5.82
2023-01-13T00:49:27.643Z,4.23
2023-01-13T00:51:54.210Z,5.22
2023-01-13T00:54:20.748Z,4.95
2023-01-13T00:56:47.253Z,7.28
2023-01-13T00:59:14.281Z,4.03
2023-01-13T01:01:41.727Z,3.77
2023-01-13T01:04:08.823Z,4.55
2023-01-13T01:06:35.442Z,4.45
2023-01-13T01:09:02.191Z,5.30
2023-01-13T01:11:31.024Z,5.63
2023-01-13T01:13:59.736Z,6.50
2023-01-13T01:16:29.011Z,6.00
2023-01-13T01:18:56.700Z,6.00
2023-01-13T01:21:25.535Z,6.15
2023-01-13T01:23:52.626Z,6.63
2023-01-13T01:26:24.815Z,3.80
2023-01-13T01:28:52.423Z,4.40
2023-01-13T01:31:21.829Z,7.03
2023-01-13T01:33:49.236Z,6.15
2023-01-13T01:36:17.879Z,4.72
2023-01-13T01:38:44.984Z,5.63
2023-01-13T01:41:17.902Z,5.72
2023-01-13T01:43:55.359Z,6.30
2023-01-13T01:46:22.250Z,7.05
2023-01-13T01:48:48.924Z,5.80
2023-01-13T01:51:16.144Z,4.57
2023-01-13T01:53:43.171Z,5.32
2023-01-13T01:56:10.939Z,6.68
2023-01-13T01:58:48.919Z,5.15
2023-01-13T02:01:16.217Z,5.35
2023-01-13T02:03:50.423Z,4.93
2023-01-13T02:06:17.362Z,3.80
2023-01-13T02:08:44.103Z,4.85
2023-01-13T02:11:27.323Z,3.33
2023-01-13T02:13:54.063Z,4.82
2023-01-13T02:16:24.082Z,5.27
2023-01-13T02:19:06.878Z,7.47
2023-01-13T02:22:08.383Z,5.55
2023-01-13T02:24:56.117Z,3.97
2023-01-13T02:27:40.079Z,4.45
2023-01-13T02:30:15.650Z,6.13
2023-01-13T02:33:03.227Z,3.35
2023-01-13T02:35:44.783Z,4.53
2023-01-13T02:38:15.246Z,4.07
2023-01-13T02:40:51.047Z,6.22
2023-01-13T02:43:28.130Z,4.67
2023-01-13T02:46:03.660Z,4.90
2023-01-13T02:48:32.289Z,4.10
2023-01-13T02:51:08.070Z,4.30
2023-01-13T02:53:40.861Z,4.57
2023-01-13T02:56:09.957Z,3.67
2023-01-13T02:58:40.275Z,4.20
2023-01-13T03:01:07.881Z,3.40
2023-01-13T03:03:34.475Z,4.30
2023-01-13T03:06:27.244Z,3.15
2023-01-13T03:08:59.122Z,5.03
2023-01-13T03:11:32.892Z,2.80
2023-01-13T03:14:10.901Z,4.53
2023-01-13T03:16:45.095Z,4.28
2023-01-13T03:19:30.884Z,4.18
2023-01-13T03:22:22.110Z,3.90
2023-01-13T03:24:55.187Z,5.43
2023-01-13T03:27:47.249Z,3.40
2023-01-13T03:30:40.414Z,4.57
2023-01-13T03:33:15.789Z,5.47
2023-01-13T03:35:45.985Z,3.37
2023-01-13T03:38:22.153Z,4.57
2023-01-13T03:40:59.132Z,3.63
2023-01-13T03:43:35.393Z,4.25
2023-01-13T03:46:10.026Z,4.75
2023-01-13T03:48:42.378Z,5.63
2023-01-13T03:51:15.413Z,4.50
2023-01-13T03:53:48.843Z,3.25
2023-01-13T03:56:26.379Z,4.28
2023-01-13T03:58:54.482Z,3.92
2023-01-13T04:01:30.970Z,3.63
2023-01-13T04:04:01.599Z,4.55
2023-01-13T04:06:42.925Z,4.15
2023-01-13T04:09:41.307Z,2.75
2023-01-13T04:12:17.850Z,3.53
2023-01-13T04:14:45.987Z,4.63
2023-01-13T04:17:12.851Z,3.63
2023-01-13T04:19:39.439Z,3.75
2023-01-13T04:22:06.087Z,3.22
2023-01-13T04:24:32.651Z,4.43
2023-01-13T04:26:59.228Z,3.97
2023-01-13T04:29:26.509Z,4.53
2023-01-13T04:31:53.037Z,3.50
2023-01-13T04:34:19.524Z,2.63
2023-01-13T04:36:46.096Z,3.03
2023-01-13T04:39:12.665Z,4.10
2023-01-13T04:41:39.267Z,4.10
2023-01-13T04:44:05.891Z,4.38
2023-01-13T04:46:32.483Z,4.22
2023-01-13T04:48:59.218Z,4.30
2023-01-13T04:51:25.931Z,4.00
2023-01-13T04:53:52.463Z,4.45
2023-01-13T04:56:19.035Z,4.38
2023-01-13T04:58:45.599Z,4.45
2023-01-13T05:01:12.297Z,4.05
2023-01-13T05:03:38.851Z,3.97
2023-01-13T05:06:05.658Z,5.32
2023-01-13T05:08:32.123Z,3.60
2023-01-13T05:11:01.429Z,3.08
2023-01-13T05:13:27.940Z,2.88
2023-01-13T05:15:54.474Z,5.10
2023-01-13T05:18:21.503Z,3.95
2023-01-13T05:20:48.033Z,2.95
2023-01-13T05:23:14.569Z,3.92
2023-01-13T05:25:44.282Z,2.97
2023-01-13T05:28:11.427Z,4.23
2023-01-13T05:30:41.951Z,2.75
2023-01-13T05:33:12.640Z,3.22
2023-01-13T05:35:41.099Z,5.32
2023-01-13T05:38:07.794Z,4.03
2023-01-13T05:40:34.596Z,4.47
2023-01-13T05:43:14.790Z,2.95
2023-01-13T05:45:41.382Z,3.53
2023-01-13T05:48:07.846Z,4.40
2023-01-13T05:50:34.430Z,5.95
2023-01-13T05:53:00.987Z,3.80
2023-01-13T05:55:27.536Z,4.28
2023-01-13T05:57:54.021Z,4.15
2023-01-13T06:00:20.836Z,5.78
2023-01-13T06:02:47.421Z,5.85
2023-01-13T06:05:13.987Z,4.10
2023-01-13T06:07:40.632Z,4.45
2023-01-13T06:10:08.016Z,4.40
2023-01-13T06:12:34.488Z,3.33
2023-01-13T06:15:01.115Z,4.45
2023-01-13T06:17:27.606Z,4.17
2023-01-13T06:19:54.093Z,4.68
2023-01-13T06:22:30.871Z,3.75
2023-01-13T06:24:57.804Z,3.78
2023-01-13T06:27:24.926Z,4.28
2023-01-13T06:29:51.568Z,3.93
2023-01-13T06:32:31.842Z,4.97
2023-01-13T06:35:05.468Z,1.80
2023-01-13T06:37:33.622Z,3.42
2023-01-13T06:40:02.554Z,2.53
2023-01-13T06:42:33.062Z,4.13
2023-01-13T06:44:59.795Z,4.05
2023-01-13T06:47:26.446Z,2.88
2023-01-13T06:49:53.050Z,1.75
2023-01-13T06:52:19.681Z,3.60
2023-01-13T06:54:46.265Z,3.37
2023-01-13T06:57:12.858Z,3.97
2023-01-13T06:59:39.334Z,2.85
2023-01-13T07:02:05.940Z,3.85
2023-01-13T07:04:32.480Z,4.05
2023-01-13T07:06:59.067Z,2.87
2023-01-13T07:09:25.595Z,3.85
2023-01-13T07:11:52.208Z,3.17
2023-01-13T07:14:18.853Z,4.18
2023-01-13T07:16:45.381Z,4.63
2023-01-13T07:19:11.937Z,3.20
2023-01-13T07:21:38.381Z,3.53
2023-01-13T07:24:05.296Z,2.88
2023-01-13T07:26:31.968Z,2.65
2023-01-13T07:28:58.551Z,2.05
2023-01-13T07:31:25.080Z,3.30
2023-01-13T07:33:51.660Z,2.42
2023-01-13T07:36:18.142Z,3.17
2023-01-13T07:38:44.750Z,3.53
2023-01-13T07:41:14.855Z,3.35
2023-01-13T07:43:41.711Z,2.30
2023-01-13T07:46:08.216Z,2.88
2023-01-13T07:48:34.982Z,2.25
2023-01-13T07:51:07.025Z,2.53
2023-01-13T07:53:34.790Z,2.15
2023-01-13T07:56:03.311Z,2.97
2023-01-13T07:58:30.322Z,2.20
2023-01-13T08:00:56.962Z,2.80
2023-01-13T08:03:24.066Z,2.10
2023-01-13T08:05:50.712Z,2.50
2023-01-13T08:08:17.583Z,2.97
2023-01-13T08:10:44.370Z,2.28
2023-01-13T08:13:12.627Z,2.85
2023-01-13T08:15:39.210Z,3.25
2023-01-13T08:18:05.927Z,2.92
2023-01-13T08:20:32.573Z,2.30
2023-01-13T08:23:00.613Z,2.65
2023-01-13T08:25:28.840Z,2.95
2023-01-13T08:27:55.963Z,3.47
2023-01-13T08:30:22.902Z,2.40
2023-01-13T08:32:50.491Z,3.53
2023-01-13T08:35:18.215Z,2.17
2023-01-13T08:37:45.971Z,2.65
2023-01-13T08:40:13.848Z,3.40
2023-01-13T08:42:40.569Z,2.83
2023-01-13T08:45:09.234Z,2.40
2023-01-13T08:47:35.799Z,2.70
2023-01-13T08:50:02.608Z,2.03
2023-01-13T08:52:30.249Z,2.78
2023-01-13T08:54:57.110Z,1.98
2023-01-13T08:57:23.666Z,2.27
2023-01-13T08:59:50.367Z,3.13
2023-01-13T09:02:20.712Z,2.17
2023-01-13T09:04:47.624Z,3.00
2023-01-13T09:07:14.725Z,3.50
2023-01-13T09:09:42.076Z,3.70
2023-01-13T09:12:11.937Z,3.90
2023-01-13T09:14:39.131Z,2.67
2023-01-13T09:17:06.598Z,2.95
2023-01-13T09:19:33.733Z,3.42
2023-01-13T09:22:00.330Z,4.70
2023-01-13T09:24:26.902Z,3.58
2023-01-13T09:26:53.414Z,3.40
2023-01-13T09:29:20.503Z,3.35
2023-01-13T09:31:47.540Z,2.95
2023-01-13T09:34:19.253Z,2.80
2023-01-13T09:36:45.884Z,3.65
2023-01-13T09:39:12.706Z,3.88
2023-01-13T09:41:49.492Z,3.35
2023-01-13T09:44:23.643Z,2.75
2023-01-13T09:47:00.365Z,4.43
2023-01-13T09:49:40.948Z,1.95
2023-01-13T09:52:21.709Z,3.95
2023-01-13T09:55:01.695Z,3.83
2023-01-13T09:57:32.512Z,2.95
2023-01-13T09:59:59.295Z,3.83
2023-01-13T10:02:45.126Z,3.20
2023-01-13T10:05:19.941Z,3.10
2023-01-13T10:07:54.219Z,3.92
2023-01-13T10:10:50.351Z,1.95
2023-01-13T10:13:31.131Z,3.47
2023-01-13T10:16:31.189Z,3.40
2023-01-13T10:19:14.661Z,3.30
2023-01-13T10:22:08.440Z,2.75
2023-01-13T10:25:05.234Z,3.20
2023-01-13T10:27:37.017Z,3.33
2023-01-13T10:30:18.832Z,3.78
2023-01-13T10:32:57.711Z,3.85
2023-01-13T10:36:02.942Z,5.18
2023-01-13T10:38:35.507Z,3.00
2023-01-13T10:41:16.849Z,2.63
2023-01-13T10:43:52.712Z,4.20
2023-01-13T10:46:20.597Z,3.30
2023-01-13T10:49:19.405Z,3.97
2023-01-13T10:51:46.243Z,4.70
2023-01-13T10:54:12.664Z,4.53
2023-01-13T10:56:44.311Z,3.80
2023-01-13T10:59:13.627Z,4.15
2023-01-13T11:01:43.457Z,3.33
2023-01-13T11:04:26.064Z,2.95
2023-01-13T11:06:52.751Z,2.30
2023-01-13T11:09:21.646Z,3.15
2023-01-13T11:11:49.457Z,4.07
2023-01-13T11:14:21.806Z,3.70
2023-01-13T11:16:53.985Z,3.67
2023-01-13T11:19:24.348Z,3.87
2023-01-13T11:21:53.560Z,2.85
2023-01-13T11:24:34.314Z,3.78
2023-01-13T11:27:06.877Z,4.10
2023-01-13T11:29:45.885Z,2.95
2023-01-13T11:32:17.495Z,3.40
2023-01-13T11:34:49.671Z,3.20
2023-01-13T11:37:30.695Z,5.10
2023-01-13T11:40:21.868Z,3.88
2023-01-13T11:42:49.102Z,5.15
2023-01-13T11:45:25.043Z,3.13
2023-01-13T11:47:55.201Z,4.10
2023-01-13T11:50:34.805Z,4.50
2023-01-13T11:53:09.654Z,4.47
2023-01-13T11:55:49.048Z,3.90
2023-01-13T11:58:49.726Z,4.63
2023-01-13T12:01:42.106Z,3.10
2023-01-13T12:04:17.415Z,3.70
2023-01-13T12:06:44.438Z,5.30
2023-01-13T12:09:16.897Z,4.20
2023-01-13T12:11:43.351Z,4.43
2023-01-13T12:14:29.543Z,3.97
2023-01-13T12:16:56.684Z,3.40
2023-01-13T12:19:30.930Z,5.20
2023-01-13T12:22:11.771Z,4.05
2023-01-13T12:24:44.708Z,3.50
2023-01-13T12:27:14.257Z,2.95
2023-01-13T12:29:40.793Z,3.05
2023-01-13T12:32:14.511Z,3.53
2023-01-13T12:35:04.348Z,3.63
2023-01-13T12:37:37.123Z,5.40
2023-01-13T12:40:28.124Z,4.53
2023-01-13T12:43:03.978Z,5.25
2023-01-13T12:45:33.729Z,4.07
2023-01-13T12:48:01.114Z,3.55
2023-01-13T12:50:27.722Z,2.77
2023-01-13T12:52:59.894Z,3.17
2023-01-13T12:55:34.367Z,3.08
2023-01-13T12:58:06.877Z,2.95
2023-01-13T13:00:39.423Z,4.47
2023-01-13T13:03:12.304Z,4.47
2023-01-13T13:06:00.649Z,3.92
2023-01-13T13:08:36.038Z,4.32
2023-01-13T13:11:21.254Z,3.53
2023-01-13T13:13:48.894Z,4.32
2023-01-13T13:16:46.393Z,2.87
2023-01-13T13:19:18.940Z,4.78
2023-01-13T13:22:07.165Z,2.70
2023-01-13T13:24:33.801Z,3.15
2023-01-13T13:27:38.568Z,4.47
2023-01-13T13:30:28.458Z,3.37
2023-01-13T13:33:09.925Z,2.42
2023-01-13T13:35:49.225Z,4.03
2023-01-13T13:38:24.882Z,2.28
2023-01-13T13:40:51.502Z,2.85
2023-01-13T13:43:20.409Z,3.00
2023-01-13T13:45:52.072Z,2.20
2023-01-13T13:48:28.085Z,4.22
2023-01-13T13:51:01.426Z,3.97
2023-01-13T13:53:35.374Z,4.38
2023-01-13T13:56:05.275Z,3.27
2023-01-13T13:58:33.346Z,2.60
2023-01-13T14:01:00.624Z,2.90
2023-01-13T14:03:34.308Z,4.00
2023-01-13T14:06:05.852Z,3.90
2023-01-13T14:08:38.664Z,2.60
2023-01-13T14:11:25.938Z,4.00
2023-01-13T14:14:14.109Z,3.83
2023-01-13T14:16:41.212Z,4.68
2023-01-13T14:19:35.913Z,3.30
2023-01-13T14:22:04.274Z,4.10
2023-01-13T14:24:31.742Z,3.80
2023-01-13T14:27:13.936Z,4.57
2023-01-13T14:29:40.895Z,6.72
2023-01-13T14:32:08.015Z,6.55
2023-01-13T14:34:35.479Z,5.60
2023-01-13T14:37:02.677Z,6.85
2023-01-13T14:39:41.086Z,6.47
2023-01-13T14:42:16.454Z,5.05
2023-01-13T14:44:49.635Z,6.03
2023-01-13T14:47:23.959Z,6.47
2023-01-13T14:50:14.788Z,5.75
2023-01-13T14:52:49.520Z,4.90
2023-01-13T14:55:24.156Z,2.95
2023-01-13T14:57:50.912Z,3.45
2023-01-13T15:00:25.542Z,4.10
2023-01-13T15:02:58.093Z,4.70
2023-01-13T15:05:27.588Z,4.50
2023-01-13T15:08:02.917Z,6.38
2023-01-13T15:10:34.946Z,4.25
2023-01-13T15:13:04.120Z,4.83
2023-01-13T15:15:37.889Z,5.45
2023-01-13T15:18:15.881Z,6.38
2023-01-13T15:20:43.101Z,3.15
2023-01-13T15:23:10.265Z,5.53
2023-01-13T15:25:40.575Z,5.80
2023-01-13T15:28:14.387Z,3.90
2023-01-13T15:30:40.913Z,4.13
2023-01-13T15:33:11.009Z,5.03
2023-01-13T15:35:39.442Z,5.40
2023-01-13T15:38:12.053Z,5.33
2023-01-13T15:40:38.669Z,5.85
2023-01-13T15:43:05.345Z,5.18
2023-01-13T15:45:34.015Z,4.70
2023-01-13T15:48:00.583Z,6.07
2023-01-13T15:50:28.586Z,5.20
2023-01-13T15:52:55.164Z,5.85
2023-01-13T15:55:21.682Z,4.90
2023-01-13T15:57:50.423Z,4.68
2023-01-13T16:00:19.828Z,4.55
2023-01-13T16:02:46.474Z,5.90
2023-01-13T16:05:13.533Z,5.80
2023-01-13T16:07:40.371Z,6.32
2023-01-13T16:10:17.257Z,5.50
2023-01-13T16:12:43.834Z,6.82
2023-01-13T16:15:13.644Z,3.03
2023-01-13T16:17:41.061Z,6.47
2023-01-13T16:20:16.540Z,3.92
2023-01-13T16:22:43.156Z,3.78
2023-01-13T16:25:17.312Z,4.95
2023-01-13T16:27:44.388Z,4.50
2023-01-13T16:30:20.880Z,4.85
2023-01-13T16:32:48.200Z,7.78
2023-01-13T16:35:14.841Z,7.40
2023-01-13T16:37:41.468Z,3.33
2023-01-13T16:40:31.111Z,7.67
2023-01-13T16:42:58.311Z,6.90
2023-01-13T16:45:25.109Z,6.95
2023-01-13T16:47:52.029Z,7.80
2023-01-13T16:50:36.795Z,8.32
2023-01-13T16:53:04.549Z,7.03
2023-01-13T16:55:31.321Z,6.32
2023-01-13T16:57:57.937Z,7.47
2023-01-13T17:00:24.650Z,6.97
2023-01-13T17:02:51.160Z,6.07
2023-01-13T17:05:17.793Z,4.73
2023-01-13T17:07:46.733Z,6.32
2023-01-13T17:10:23.074Z,4.97
2023-01-13T17:12:49.961Z,7.00
2023-01-13T17:15:18.594Z,6.60
2023-01-13T17:17:47.074Z,7.07
2023-01-13T17:20:15.893Z,5.38
2023-01-13T17:22:43.901Z,7.75
2023-01-13T17:25:13.923Z,5.85
2023-01-13T17:27:40.585Z,8.35
2023-01-13T17:30:08.155Z,5.27
2023-01-13T17:32:34.676Z,5.28
2023-01-13T17:35:01.271Z,5.05
2023-01-13T17:37:28.055Z,6.22
2023-01-13T17:39:54.708Z,5.57
2023-01-13T17:42:21.359Z,7.23
2023-01-13T17:44:48.073Z,5.00
2023-01-13T17:47:15.002Z,4.15
2023-01-13T17:49:41.577Z,6.30
2023-01-13T17:52:08.085Z,5.38
2023-01-13T17:54:34.834Z,5.00
2023-01-13T17:57:01.574Z,5.05
2023-01-13T17:59:28.106Z,5.18
2023-01-13T18:01:54.727Z,4.93
2023-01-13T18:04:25.548Z,4.72
2023-01-13T18:06:52.080Z,5.67
2023-01-13T18:09:18.564Z,5.35
2023-01-13T18:11:47.292Z,5.90
2023-01-13T18:14:14.045Z,6.85
2023-01-13T18:16:40.749Z,5.93
2023-01-13T18:19:07.605Z,6.10
2023-01-13T18:21:34.124Z,6.35
2023-01-13T18:24:00.570Z,4.03
2023-01-13T18:26:27.947Z,7.57
2023-01-13T18:28:54.419Z,5.43
2023-01-13T18:31:20.933Z,5.47
2023-01-13T18:33:47.537Z,3.22
2023-01-13T18:36:14.091Z,5.68
2023-01-13T18:38:40.636Z,6.75
2023-01-13T18:41:07.387Z,5.35
2023-01-13T18:43:34.241Z,4.90
2023-01-13T18:46:00.890Z,4.55
2023-01-13T18:48:27.537Z,5.07
2023-01-13T18:50:54.015Z,5.40
2023-01-13T18:53:20.538Z,5.82
2023-01-13T18:55:47.053Z,4.73
2023-01-13T18:58:13.523Z,4.97
2023-01-13T19:00:40.087Z,6.97
2023-01-13T19:05:35.928Z,6.32
2023-01-13T19:08:03.216Z,6.10
2023-01-13T19:10:29.800Z,4.30
2023-01-13T19:12:56.336Z,4.30
2023-01-13T19:15:22.923Z,4.07
2023-01-13T19:17:49.502Z,4.10
2023-01-13T19:20:16.221Z,4.60
2023-01-13T19:22:42.857Z,3.97
2023-01-13T19:25:09.601Z,6.40
2023-01-13T19:27:36.108Z,5.93
2023-01-13T19:30:03.192Z,4.65
2023-01-13T19:32:33.573Z,5.97
2023-01-13T19:35:00.123Z,3.42
2023-01-13T19:37:27.239Z,4.57
2023-01-13T19:39:53.787Z,5.75
2023-01-13T19:42:21.171Z,7.80
2023-01-13T19:44:47.708Z,8.43
2023-01-13T19:47:14.429Z,9.32
2023-01-13T19:49:41.047Z,4.15
2023-01-13T19:52:07.649Z,4.72
2023-01-13T19:54:34.729Z,9.63
2023-01-13T19:57:01.507Z,5.93
2023-01-13T19:59:28.170Z,10.00
2023-01-13T20:01:58.640Z,6.97
2023-01-13T20:04:25.238Z,8.25
2023-01-13T20:06:51.782Z,7.43
2023-01-13T20:09:18.334Z,8.33
2023-01-13T20:11:44.761Z,9.90
2023-01-13T20:14:11.697Z,8.10
2023-01-13T20:16:38.208Z,7.43
2023-01-13T20:19:04.677Z,5.10
2023-01-13T20:21:31.197Z,7.03
2023-01-13T20:23:57.835Z,7.85
2023-01-13T20:26:24.344Z,8.65
2023-01-13T20:28:50.810Z,4.18
2023-01-13T20:31:17.544Z,8.55
2023-01-13T20:33:44.095Z,7.80
2023-01-13T20:36:24.954Z,7.53
2023-01-13T20:38:51.427Z,7.55
2023-01-13T20:41:18.041Z,8.15
2023-01-13T20:43:44.554Z,8.20
2023-01-13T20:46:11.054Z,9.50
2023-01-13T20:48:38.252Z,7.97
2023-01-13T20:51:04.981Z,9.40
2023-01-13T20:53:31.525Z,6.00
2023-01-13T20:55:58.122Z,7.47
2023-01-13T20:58:24.860Z,6.40
2023-01-13T21:00:51.373Z,9.88
2023-01-13T21:03:17.948Z,5.15
2023-01-13T21:05:44.610Z,5.88
2023-01-13T21:08:11.110Z,7.63
2023-01-13T21:10:37.627Z,8.80
2023-01-13T21:13:04.186Z,6.53
2023-01-13T21:15:30.684Z,6.43
2023-01-13T21:17:57.152Z,10.02
2023-01-13T21:20:23.804Z,8.13
2023-01-13T21:22:50.357Z,3.77
2023-01-13T21:25:18.100Z,5.75
2023-01-13T21:27:44.691Z,5.13
2023-01-13T21:30:12.421Z,5.18
2023-01-13T21:32:38.916Z,6.50
2023-01-13T21:35:05.640Z,6.10
2023-01-13T21:37:32.306Z,6.05
2023-01-13T21:39:58.787Z,5.30
2023-01-13T21:42:25.492Z,5.18
2023-01-13T21:44:52.387Z,6.20
2023-01-13T21:47:19.567Z,8.03
2023-01-13T21:49:46.833Z,7.22
2023-01-13T21:52:14.357Z,6.43
2023-01-13T21:54:41.329Z,5.60
2023-01-13T21:57:07.978Z,4.65
2023-01-13T21:59:34.499Z,3.73
2023-01-13T22:02:23.672Z,6.78
2023-01-13T22:04:47.895Z,7.10
2023-01-13T22:07:15.728Z,6.43
2023-01-13T22:09:42.423Z,7.53
2023-01-13T22:12:09.683Z,6.53
2023-01-13T22:14:36.122Z,5.07
2023-01-13T22:17:02.698Z,6.05
2023-01-13T22:19:30.004Z,7.70
2023-01-13T22:21:57.385Z,4.25
2023-01-13T22:24:23.860Z,7.43
2023-01-13T22:26:50.554Z,7.53
2023-01-13T22:29:17.271Z,7.07
2023-01-13T22:31:43.789Z,7.53
2023-01-13T22:34:11.894Z,5.60
2023-01-13T22:36:38.405Z,5.83
2023-01-13T22:39:05.928Z,7.13
2023-01-13T22:41:32.564Z,6.63
2023-01-13T22:43:59.227Z,4.88
2023-01-13T22:46:27.243Z,4.90
2023-01-13T22:48:54.032Z,8.00
2023-01-13T22:51:20.576Z,7.38
2023-01-13T22:53:47.128Z,6.00
2023-01-13T22:56:21.806Z,6.53
2023-01-13T22:58:52.392Z,4.43
2023-01-13T23:01:19.968Z,5.83
2023-01-13T23:03:50.395Z,6.40
2023-01-13T23:06:18.730Z,5.47
2023-01-13T23:08:46.090Z,3.90
2023-01-13T23:11:15.493Z,6.65
2023-01-13T23:13:42.741Z,4.90
2023-01-13T23:16:15.334Z,5.30
2023-01-13T23:18:42.256Z,5.53
2023-01-13T23:21:11.860Z,6.07
2023-01-13T23:23:38.639Z,5.90
2023-01-13T23:26:06.870Z,7.17
2023-01-13T23:28:34.359Z,6.07
2023-01-13T23:31:06.402Z,7.65
2023-01-13T23:33:33.120Z,8.32
2023-01-13T23:36:02.537Z,5.43
2023-01-13T23:38:29.967Z,6.67
2023-01-13T23:40:56.803Z,6.10
2023-01-13T23:43:24.031Z,8.07
2023-01-13T23:45:51.096Z,9.85
2023-01-13T23:48:17.933Z,4.78
2023-01-13T23:50:44.688Z,8.30
2023-01-13T23:53:11.189Z,6.68
2023-01-13T23:55:37.795Z,5.65
2023-01-13T23:58:04.267Z,4.55
